BGSFCYVM

Guest
Details From BGSF - Kangerlussuaq
To CYVM - QIKIQTARJUAQ
Flight Number -
Tags decoded
Created
Modified
Stats Distance 310 nm / 574 km
Max Altitude 0 ft / 0 m
Waypoints 2
Social Downloads 5
Likes 0
Share VATSIM

Download

Looking for another format? Having issues loading an existing format? Contact us
Advertisement - Login to hide

Notes

Requested: BGSF CYVM

Route

BGSF CYVM

ID Type Via Altitude Latitude Longitude Leg Dist Tot Dist Heading (true) Name
O BGSF APT - 0 ft / 0 m 67.01160˚ -50.71472˚ - 0 nm - Kangerlussuaq
O CYVM APT - 0 ft / 0 m 67.54624˚ -64.03071˚ 309 nm 309 nm 282° / 270° QIKIQTARJUAQ

Altitude Profile

Advertisement - Login to hide

Weather


0- 5 10 15 20 25 30 35+ Temperature / ° C

Clouds and Precipitation
Forecast for 2017-12-16 00:00 UTC. Updated 22 minutes ago

Ground ~20,000 ft ~40,000 ft Winds

BGSF

Details ICAO BGSF (SFJ)
Name Kangerlussuaq
Region Greenland
Timezone America/Godthab (UTC-3.0)
Stats Elevation 165 ft / 50 m (AMSL)
Location 67.011605° -50.714721°
Runways 2
Magnetic Variation 29.033° W

METAR

BGSF 152250Z AUTO 05010KT 9999NDV NCD M08/M14 Q0990

Decode

TAF

Not found

Departure Runways

ID Width Length Bearing (true) Bearing (mag) Surface Threshold Offset Overrun Length
09 197 ft / 60 m 9,169 ft / 2,795 m 61.57° 90.60° Asphalt 0 ft / 0 m 509 ft / 155 m
10 197 ft / 60 m 9,187 ft / 2,800 m 61.55° 90.58° Asphalt 0 ft / 0 m 0 ft / 0 m
27 197 ft / 60 m 9,169 ft / 2,795 m 241.63° 270.66° Asphalt 0 ft / 0 m 171 ft / 52 m
28 197 ft / 60 m 9,187 ft / 2,800 m 241.60° 270.63° Asphalt 0 ft / 0 m 0 ft / 0 m

CYVM

Details ICAO CYVM (YVM)
Name QIKIQTARJUAQ
Region Canada
Timezone Unknown (UTC+0.0)
Stats Elevation 21 ft / 6 m (AMSL)
Location 67.546236° -64.030706°
Runways 1
Magnetic Variation 32.146° W

METAR

CYVM 152334Z AUTO 05010KT 9SM -SN BKN020 OVC025 M15/M17 A2955 RMK SLP009

Decode

TAF

TAF CYVM 151846Z 1519/1607 06010KT 3SM -SN OVC015 TEMPO 1519/1521 6SM -SN OVC025 FM152100 06008KT 3SM -SN BKN020 OVC060 TEMPO 1521/1601 P6SM NSW SCT020 BKN060 PROB30 1521/1601 2SM -SHSN OVC015 FM160100 07008KT P6SM -SN BKN030 TEMPO 1601/1607 4SM -SN RMK NXT FCST BY 160100Z

Decode

Destination Runways

ID Width Length Bearing (true) Bearing (mag) Surface Threshold Offset Overrun Length
03T 100 ft / 30 m 3,741 ft / 1,140 m 33.20° 65.35° Gravel 0 ft / 0 m 0 ft / 0 m
21T 100 ft / 30 m 3,741 ft / 1,140 m 213.21° 245.36° Gravel 0 ft / 0 m 0 ft / 0 m

Popular Alternatives